Time;durP1;ratioP1;P1;durP2;ratioP2;P2;SDS_P1;SDS_P2;PMS_P1;PMS_P2;Temp;Humidity;BMP_temperature;BMP_pressure;BME280_temperature;BME280_humidity;BME280_pressure;Samples;Min_cycle;Max_cycle;Signal;HPM_P1;HPM_P2
2021/03/13 00:00:59;;;;;;;30.25;17.32;;;;;;;0.71;100.00;98859.03;1829801;78;20990;-74
2021/03/13 00:03:28;;;;;;;28.60;16.67;;;;;;;0.74;100.00;98860.66;1829839;78;20947;-74
2021/03/13 00:05:56;;;;;;;33.55;19.85;;;;;;;0.79;100.00;98861.21;1829875;78;21030;-74
2021/03/13 00:08:23;;;;;;;33.25;18.55;;;;;;;0.80;100.00;98861.48;1829812;78;21000;-74
2021/03/13 00:10:50;;;;;;;32.03;18.17;;;;;;;0.82;100.00;98864.19;1829850;78;21490;-74
2021/03/13 00:13:18;;;;;;;30.77;17.70;;;;;;;0.84;99.96;98866.63;1829718;78;20979;-74
2021/03/13 00:15:46;;;;;;;31.80;17.02;;;;;;;0.85;99.88;98869.05;1829628;78;20982;-74
2021/03/13 00:18:13;;;;;;;31.87;17.95;;;;;;;0.86;99.82;98865.27;1828039;78;20983;-74
2021/03/13 00:20:42;;;;;;;35.20;18.90;;;;;;;0.88;99.77;98867.17;1828079;78;21018;-75
2021/03/13 00:23:10;;;;;;;33.10;17.92;;;;;;;0.88;99.78;98864.47;1828142;78;22273;-73
2021/03/13 00:25:37;;;;;;;32.15;18.05;;;;;;;0.88;99.76;98866.36;1828067;78;20944;-73
2021/03/13 00:28:05;;;;;;;27.37;17.10;;;;;;;0.88;99.70;98862.30;1828125;78;21081;-74
2021/03/13 00:30:42;;;;;;;29.27;17.37;;;;;;;0.87;99.65;98866.08;1828025;78;21014;-74
2021/03/13 00:33:20;;;;;;;30.57;18.60;;;;;;;0.88;99.63;98871.77;1828123;78;21034;-74
2021/03/13 00:35:51;;;;;;;33.53;19.48;;;;;;;0.87;99.70;98868.78;1828095;78;21197;-74
2021/03/13 00:38:19;;;;;;;40.25;22.17;;;;;;;0.86;99.73;98867.16;1828013;78;21022;-74
2021/03/13 00:40:47;;;;;;;79.97;30.75;;;;;;;0.87;99.76;98872.30;1828144;78;21483;-74
2021/03/13 00:43:15;;;;;;;100.97;34.18;;;;;;;0.88;99.73;98879.87;1827999;78;20975;-74
2021/03/13 00:45:43;;;;;;;97.35;34.20;;;;;;;0.87;99.76;98883.65;1828127;78;20983;-74
2021/03/13 00:48:10;;;;;;;89.00;32.25;;;;;;;0.85;99.79;98895.27;1827517;78;22812;-74
2021/03/13 00:50:42;;;;;;;59.93;24.50;;;;;;;0.84;99.81;98893.64;1824748;78;20943;-72
2021/03/13 00:53:09;;;;;;;44.20;21.60;;;;;;;0.83;99.87;98896.07;1824864;78;20888;-73
2021/03/13 00:55:37;;;;;;;43.65;21.80;;;;;;;0.83;99.90;98902.83;1824817;78;21062;-73
2021/03/13 00:58:06;;;;;;;36.88;20.15;;;;;;;0.83;100.00;98906.88;1824871;78;21057;-73
2021/03/13 01:00:37;;;;;;;34.03;19.05;;;;;;;0.84;100.00;98899.05;1824890;78;21461;-73
2021/03/13 01:03:05;;;;;;;30.85;17.30;;;;;;;0.85;100.00;98910.13;1824832;78;21106;-73
2021/03/13 01:05:33;;;;;;;31.80;17.92;;;;;;;0.88;100.00;98909.05;1824710;78;21047;-72
2021/03/13 01:08:07;;;;;;;40.10;19.50;;;;;;;0.90;100.00;98908.78;1825595;78;21015;-72
2021/03/13 01:10:38;;;;;;;39.42;19.95;;;;;;;0.92;100.00;98912.84;1821991;78;20928;-72
2021/03/13 01:13:06;;;;;;;52.73;24.52;;;;;;;0.93;100.00;98913.66;1824932;78;22262;-72
2021/03/13 01:15:34;;;;;;;40.55;21.80;;;;;;;0.93;100.00;98906.90;1824765;78;21141;-74
2021/03/13 01:18:03;;;;;;;33.67;18.42;;;;;;;0.94;100.00;98911.23;1824812;78;20947;-73
2021/03/13 01:20:32;;;;;;;34.63;18.73;;;;;;;0.95;100.00;98911.50;1793049;78;21558;-74
2021/03/13 01:23:00;;;;;;;28.85;17.02;;;;;;;0.95;100.00;98910.95;1824833;78;20897;-74
2021/03/13 01:25:27;;;;;;;29.50;17.25;;;;;;;0.95;100.00;98916.91;1824800;78;21763;-74
2021/03/13 01:27:55;;;;;;;28.25;15.55;;;;;;;0.95;100.00;98913.66;1824709;78;20991;-74
2021/03/13 01:30:25;;;;;;;24.47;14.58;;;;;;;0.97;100.00;98914.74;1824703;78;21004;-72
2021/03/13 01:32:52;;;;;;;25.12;14.83;;;;;;;0.96;100.00;98919.34;1824881;78;21569;-72
2021/03/13 01:35:21;;;;;;;25.12;14.68;;;;;;;0.97;100.00;98920.15;1824839;78;21054;-73
2021/03/13 01:37:49;;;;;;;30.35;16.70;;;;;;;0.97;100.00;98928.25;1824780;78;21597;-73
2021/03/13 01:40:18;;;;;;;25.72;16.02;;;;;;;0.96;100.00;98930.69;1824749;78;20963;-73
2021/03/13 01:42:47;;;;;;;26.12;14.90;;;;;;;0.97;100.00;98931.77;1824709;78;20971;-74
2021/03/13 01:45:20;;;;;;;28.55;14.65;;;;;;;0.98;100.00;98933.94;1824512;78;20963;-73
2021/03/13 01:47:47;;;;;;;24.52;13.68;;;;;;;0.98;100.00;98932.58;1824925;78;21050;-73
2021/03/13 01:50:17;;;;;;;28.23;15.10;;;;;;;0.96;100.00;98934.20;1824777;78;21471;-73
2021/03/13 01:52:48;;;;;;;30.10;15.40;;;;;;;0.94;100.00;98945.82;1824743;78;20941;-72
2021/03/13 01:55:17;;;;;;;27.73;15.32;;;;;;;0.92;100.00;98949.33;1793063;78;20920;-73
2021/03/13 01:57:45;;;;;;;26.75;15.75;;;;;;;0.91;100.00;98953.11;1824850;78;21125;-73
2021/03/13 02:00:16;;;;;;;25.05;14.55;;;;;;;0.91;100.00;98954.46;1824769;78;21003;-73
2021/03/13 02:02:45;;;;;;;24.70;14.35;;;;;;;0.91;100.00;98950.95;1824327;78;21149;-73
2021/03/13 02:05:22;;;;;;;25.97;14.18;;;;;;;0.92;100.00;98947.16;1824052;78;21022;-72
2021/03/13 02:08:10;;;;;;;27.00;15.83;;;;;;;0.95;100.00;98944.73;1824851;78;20920;-72
2021/03/13 02:11:04;;;;;;;24.37;13.53;;;;;;;0.96;100.00;98940.14;1761788;78;21008;-72
2021/03/13 02:14:17;;;;;;;27.93;15.10;;;;;;;0.97;100.00;98930.96;1815498;78;20936;-72
2021/03/13 02:16:55;;;;;;;25.23;14.15;;;;;;;0.99;100.00;98938.27;1823648;78;21377;-72
2021/03/13 02:19:48;;;;;;;24.98;14.80;;;;;;;1.00;100.00;98935.83;1824460;78;21589;-73
2021/03/13 02:22:16;;;;;;;24.82;13.80;;;;;;;0.99;100.00;98936.38;1824752;78;20922;-72
2021/03/13 02:25:05;;;;;;;24.82;14.83;;;;;;;0.99;100.00;98939.07;1824859;78;21486;-72
2021/03/13 02:27:41;;;;;;;24.63;14.55;;;;;;;1.01;100.00;98937.45;1824774;78;21014;-74
2021/03/13 02:30:21;;;;;;;22.70;14.80;;;;;;;1.02;100.00;98951.23;1824046;78;21142;-73
2021/03/13 02:33:25;;;;;;;28.87;15.88;;;;;;;1.06;100.00;98946.11;1888679;76;22717;-72
2021/03/13 02:36:13;;;;;;;27.32;14.83;;;;;;;1.03;100.00;98952.05;1774458;80;21037;-73
2021/03/13 02:38:46;;;;;;;29.10;16.97;;;;;;;1.03;100.00;98948.81;1773419;81;21871;-74
2021/03/13 02:41:19;;;;;;;31.52;17.12;;;;;;;1.02;100.00;98953.95;1775472;80;21603;-73
2021/03/13 02:43:50;;;;;;;36.73;16.97;;;;;;;1.02;100.00;98958.53;1748267;81;20939;-73
2021/03/13 02:46:20;;;;;;;32.80;15.98;;;;;;;1.03;100.00;98959.63;1747357;80;20938;-74
2021/03/13 02:48:48;;;;;;;31.10;16.62;;;;;;;1.03;100.00;98965.56;1743390;82;20963;-74
2021/03/13 02:51:18;;;;;;;32.67;17.32;;;;;;;1.03;100.00;98977.19;1747586;80;21815;-74
2021/03/13 02:53:46;;;;;;;31.23;16.97;;;;;;;1.03;100.00;98982.59;1743291;82;21037;-74
2021/03/13 02:56:18;;;;;;;31.87;17.37;;;;;;;1.02;100.00;98978.27;1747100;80;20990;-73
2021/03/13 02:58:49;;;;;;;30.92;17.02;;;;;;;1.02;100.00;98986.92;1735984;82;21511;-73
2021/03/13 03:01:17;;;;;;;33.10;16.75;;;;;;;1.02;100.00;98982.86;1816801;79;21033;-74
2021/03/13 03:03:45;;;;;;;34.50;17.48;;;;;;;1.03;100.00;98981.78;1816633;79;21189;-74
2021/03/13 03:06:17;;;;;;;28.27;16.97;;;;;;;1.04;100.00;98984.22;1815284;79;20986;-75
2021/03/13 03:08:47;;;;;;;29.45;16.52;;;;;;;1.06;100.00;98983.95;1816838;79;20864;-73
2021/03/13 03:11:21;;;;;;;31.10;17.87;;;;;;;1.05;100.00;98980.44;1816311;79;21513;-72
2021/03/13 03:13:50;;;;;;;33.88;18.07;;;;;;;1.04;100.00;98980.70;1816748;79;20918;-72
2021/03/13 03:16:18;;;;;;;33.48;17.00;;;;;;;1.05;100.00;98980.44;1816602;78;21355;-72
2021/03/13 03:18:49;;;;;;;32.30;17.95;;;;;;;1.07;100.00;98981.52;1816521;79;21041;-73
2021/03/13 03:21:19;;;;;;;32.70;17.25;;;;;;;1.07;100.00;98978.82;1788101;79;20907;-73
2021/03/13 03:23:48;;;;;;;31.53;17.33;;;;;;;1.09;100.00;98974.77;1816976;79;21446;-74
2021/03/13 03:26:18;;;;;;;38.42;17.67;;;;;;;1.07;100.00;98973.41;1816631;79;20902;-73
2021/03/13 03:28:46;;;;;;;29.15;17.17;;;;;;;1.07;100.00;98974.77;1787244;79;21371;-73
2021/03/13 03:31:16;;;;;;;33.15;17.62;;;;;;;1.07;100.00;98980.98;1816731;78;21259;-72
2021/03/13 03:33:44;;;;;;;35.85;19.62;;;;;;;1.06;100.00;98991.52;1820054;78;20943;-72
2021/03/13 03:36:12;;;;;;;31.60;17.95;;;;;;;1.05;100.00;98999.36;1820115;78;21528;-72
2021/03/13 03:38:40;;;;;;;32.33;16.82;;;;;;;1.04;100.00;98999.09;1820084;78;20887;-72
2021/03/13 03:41:09;;;;;;;32.38;15.98;;;;;;;1.04;100.00;98996.92;1820061;78;21192;-72
2021/03/13 03:43:42;;;;;;;31.42;17.12;;;;;;;1.02;100.00;98999.89;1819488;78;21053;-72
2021/03/13 03:46:10;;;;;;;32.50;16.93;;;;;;;1.02;100.00;99010.70;1819541;78;21188;-73
2021/03/13 03:48:39;;;;;;;29.63;16.85;;;;;;;1.02;100.00;99012.05;1754418;80;20927;-73
2021/03/13 03:51:13;;;;;;;29.18;16.65;;;;;;;1.01;100.00;99007.73;1755886;80;21500;-73
2021/03/13 03:53:49;;;;;;;32.00;17.48;;;;;;;1.02;100.00;99009.89;1756033;81;21402;-73
2021/03/13 03:56:22;;;;;;;30.00;16.40;;;;;;;1.01;100.00;99011.78;1756225;81;21026;-73
2021/03/13 03:58:49;;;;;;;26.70;15.65;;;;;;;1.01;100.00;99015.03;1756465;81;20946;-72
2021/03/13 04:01:17;;;;;;;27.62;16.17;;;;;;;0.99;100.00;99017.99;1756293;81;20934;-72
2021/03/13 04:03:55;;;;;;;29.52;15.95;;;;;;;0.99;100.00;99026.91;1756340;81;20986;-72
2021/03/13 04:06:22;;;;;;;26.62;15.48;;;;;;;0.99;100.00;99027.45;1777987;80;21949;-73
2021/03/13 04:08:57;;;;;;;25.08;14.70;;;;;;;0.98;100.00;99029.34;1756262;81;21038;-73
2021/03/13 04:11:25;;;;;;;28.35;15.35;;;;;;;0.98;100.00;99021.77;1756304;81;21130;-74
2021/03/13 04:13:53;;;;;;;34.90;18.30;;;;;;;0.98;100.00;99021.77;1730840;81;21594;-74
2021/03/13 04:16:21;;;;;;;28.25;15.90;;;;;;;0.97;100.00;99029.07;1731294;81;21582;-74
2021/03/13 04:18:48;;;;;;;25.92;15.53;;;;;;;0.96;100.00;99025.28;1730951;81;21050;-73
2021/03/13 04:21:16;;;;;;;24.12;13.40;;;;;;;0.95;100.00;99035.81;1756227;81;21033;-72
2021/03/13 04:23:46;;;;;;;24.12;14.47;;;;;;;0.95;100.00;99044.73;1707182;81;21142;-73
2021/03/13 04:26:16;;;;;;;29.90;14.95;;;;;;;0.95;100.00;99042.03;1756307;81;21584;-73
2021/03/13 04:28:47;;;;;;;26.33;16.02;;;;;;;0.98;100.00;99040.70;1756364;81;21010;-73
2021/03/13 04:31:31;;;;;;;26.68;14.87;;;;;;;0.99;100.00;99045.02;1731315;81;21308;-73
2021/03/13 04:34:00;;;;;;;24.85;15.20;;;;;;;1.00;100.00;99042.59;1815960;79;20875;-73
2021/03/13 04:36:32;;;;;;;30.30;16.25;;;;;;;1.01;100.00;99040.16;1787394;79;20895;-72
2021/03/13 04:39:01;;;;;;;25.10;13.85;;;;;;;1.05;100.00;99042.61;1815909;79;20907;-73
2021/03/13 04:41:29;;;;;;;25.20;14.13;;;;;;;1.07;100.00;99047.21;1815991;78;20902;-75
2021/03/13 04:43:56;;;;;;;23.87;13.90;;;;;;;1.10;100.00;99043.17;1786983;79;22382;-72
2021/03/13 04:46:24;;;;;;;24.45;13.70;;;;;;;1.10;100.00;99038.57;1815971;79;20919;-73
2021/03/13 04:48:52;;;;;;;26.05;14.38;;;;;;;1.12;100.00;99044.53;1815944;78;20971;-71
2021/03/13 04:51:20;;;;;;;29.05;15.68;;;;;;;1.15;100.00;99049.40;1815903;79;21089;-70
2021/03/13 04:53:47;;;;;;;25.72;14.58;;;;;;;1.15;100.00;99046.70;1815971;79;20910;-74
2021/03/13 04:56:15;;;;;;;25.00;14.38;;;;;;;1.16;100.00;99046.13;1815900;79;21376;-69
2021/03/13 04:58:42;;;;;;;23.55;14.13;;;;;;;1.18;100.00;99046.13;1813410;79;20954;-70
2021/03/13 05:01:09;;;;;;;24.80;14.13;;;;;;;1.19;100.00;99046.41;1803878;79;21010;-72
2021/03/13 05:03:39;;;;;;;24.63;14.40;;;;;;;1.24;100.00;99042.91;1779856;79;21481;-73
2021/03/13 05:06:07;;;;;;;24.25;14.60;;;;;;;1.27;100.00;99055.89;1795887;79;21061;-73
2021/03/13 05:08:36;;;;;;;26.85;13.90;;;;;;;1.28;100.00;99045.34;1795865;79;21470;-73
2021/03/13 05:11:05;;;;;;;22.37;13.03;;;;;;;1.27;100.00;99049.95;1795683;79;21002;-73
2021/03/13 05:13:34;;;;;;;23.73;14.47;;;;;;;1.26;100.00;99046.97;1795758;79;21184;-72
2021/03/13 05:16:01;;;;;;;25.35;14.87;;;;;;;1.27;100.00;99048.59;1795772;79;21002;-75
2021/03/13 05:18:29;;;;;;;26.45;14.87;;;;;;;1.28;100.00;99054.81;1795980;79;21077;-77
2021/03/13 05:20:56;;;;;;;29.82;16.42;;;;;;;1.29;100.00;99049.68;1795742;79;21428;-81
2021/03/13 05:23:23;;;;;;;28.57;16.07;;;;;;;1.31;100.00;99047.52;1795701;79;21026;-76
2021/03/13 05:25:51;;;;;;;28.32;15.80;;;;;;;1.38;100.00;99049.97;1796014;79;21841;-71
2021/03/13 05:28:18;;;;;;;25.85;15.00;;;;;;;1.41;100.00;99053.48;1795825;79;21124;-71
2021/03/13 05:30:46;;;;;;;26.23;15.10;;;;;;;1.42;100.00;99051.06;1795154;79;20942;-72
2021/03/13 05:33:13;;;;;;;27.67;16.67;;;;;;;1.47;100.00;99060.53;1808604;78;21859;-72
2021/03/13 05:35:41;;;;;;;31.62;17.00;;;;;;;1.50;100.00;99060.81;1798842;78;21085;-71
2021/03/13 05:38:08;;;;;;;28.92;17.12;;;;;;;1.56;100.00;99064.34;1798899;79;20938;-71
2021/03/13 05:40:36;;;;;;;29.12;15.98;;;;;;;1.63;100.00;99064.34;1798987;78;20934;-72
2021/03/13 05:43:04;;;;;;;28.65;15.83;;;;;;;1.72;100.00;99063.28;1798749;79;21604;-71
2021/03/13 05:45:32;;;;;;;28.70;15.68;;;;;;;1.81;100.00;99064.88;1756121;79;21964;-72
2021/03/13 05:48:01;;;;;;;31.37;17.55;;;;;;;1.88;100.00;99071.64;1798947;79;21005;-72
2021/03/13 05:50:29;;;;;;;37.80;18.42;;;;;;;1.95;100.00;99077.61;1798952;79;20931;-71
2021/03/13 05:52:57;;;;;;;36.60;19.52;;;;;;;2.02;100.00;99077.88;1804328;78;21533;-71
2021/03/13 05:55:24;;;;;;;31.27;18.05;;;;;;;2.03;100.00;99084.38;1818346;78;21501;-70
2021/03/13 05:57:52;;;;;;;34.67;17.77;;;;;;;2.07;100.00;99084.64;1803336;78;21372;-71
2021/03/13 06:00:22;;;;;;;29.52;16.62;;;;;;;2.11;100.00;99095.20;1768327;81;21518;-69
2021/03/13 06:02:50;;;;;;;27.90;17.15;;;;;;;2.18;100.00;99093.04;1768158;81;21069;-71
2021/03/13 06:05:17;;;;;;;33.45;19.12;;;;;;;2.29;100.00;99097.36;1756231;81;21081;-70
2021/03/13 06:07:45;;;;;;;27.27;16.60;;;;;;;2.31;100.00;99095.20;1760991;81;21085;-70
2021/03/13 06:10:13;;;;;;;30.70;17.85;;;;;;;2.37;100.00;99098.14;1760850;81;21372;-69
2021/03/13 06:12:41;;;;;;;32.35;19.20;;;;;;;2.40;100.00;99108.97;1760604;81;21090;-69
2021/03/13 06:15:10;;;;;;;30.88;16.77;;;;;;;2.41;100.00;99115.47;1761057;81;21610;-70
2021/03/13 06:18:00;;;;;;;32.83;18.75;;;;;;;2.43;100.00;99116.02;1760884;81;20991;-70
2021/03/13 06:20:38;;;;;;;28.15;15.90;;;;;;;2.48;100.00;99120.61;1760879;81;21138;-69
2021/03/13 06:23:13;;;;;;;28.87;17.77;;;;;;;2.52;99.90;99119.80;1760989;81;21205;-69
2021/03/13 06:25:43;;;;;;;31.20;17.65;;;;;;;2.54;99.40;99117.63;1760827;81;21055;-70
2021/03/13 06:28:20;;;;;;;28.80;17.05;;;;;;;2.59;99.65;99114.91;1760852;81;20960;-69
2021/03/13 06:30:50;;;;;;;33.28;20.12;;;;;;;2.66;99.17;99111.91;1760948;81;21054;-71
2021/03/13 06:33:32;;;;;;;30.50;18.02;;;;;;;2.67;98.38;99120.86;1760251;81;21058;-70
2021/03/13 06:36:03;;;;;;;32.75;18.52;;;;;;;2.65;97.79;99128.72;1730897;83;21615;-69
2021/03/13 06:38:33;;;;;;;30.65;18.07;;;;;;;2.68;97.73;99127.36;1731029;83;21041;-70
2021/03/13 06:41:12;;;;;;;31.95;17.70;;;;;;;2.69;97.11;99123.56;1731198;83;21120;-69
2021/03/13 06:43:40;;;;;;;37.33;17.95;;;;;;;2.76;96.57;99131.41;1731038;82;21069;-69
2021/03/13 06:46:14;;;;;;;37.95;19.20;;;;;;;2.68;95.20;99129.26;1731090;83;20961;-69
2021/03/13 06:48:51;;;;;;;33.38;17.70;;;;;;;2.63;95.30;99126.83;1731071;83;21387;-69
2021/03/13 06:51:31;;;;;;;33.10;18.50;;;;;;;2.56;94.83;99126.30;1731043;83;21171;-69
2021/03/13 06:54:10;;;;;;;35.35;18.45;;;;;;;2.47;94.42;99135.25;1731081;83;21085;-70
2021/03/13 06:56:42;;;;;;;36.45;19.67;;;;;;;2.32;94.46;99134.17;1733689;81;21626;-72
2021/03/13 06:59:23;;;;;;;40.23;23.22;;;;;;;2.24;94.56;99136.64;1742602;82;21148;-74
2021/03/13 07:02:06;;;;;;;49.27;27.17;;;;;;;2.15;94.60;99147.20;1741169;82;21378;-72
2021/03/13 07:04:37;;;;;;;;;;;;;;;2.09;95.01;99146.92;1705545;83;21129;-74
2021/03/13 07:07:06;;;;;;;47.85;26.68;;;;;;;2.04;95.03;99151.52;1723281;83;20245;-72
2021/03/13 07:09:51;;;;;;;52.25;27.73;;;;;;;1.97;95.71;99147.19;1748879;82;21210;-72
2021/03/13 07:12:25;;;;;;;49.55;25.32;;;;;;;1.98;95.75;99148.80;1751143;80;21135;-70
2021/03/13 07:14:54;;;;;;;50.60;25.10;;;;;;;1.98;95.62;99132.56;1726615;81;21208;-71
2021/03/13 07:20:00;;;;;;;47.95;26.17;;;;;;;2.31;95.86;99129.84;1862687;75;22767;-73
2021/03/13 07:22:28;;;;;;;52.43;27.40;;;;;;;2.53;95.63;99137.68;1810593;78;21605;-73
2021/03/13 07:24:55;;;;;;;42.35;22.93;;;;;;;2.80;95.21;99141.97;1808676;79;22275;-72
2021/03/13 07:27:23;;;;;;;36.35;21.60;;;;;;;2.92;93.44;99146.52;1845278;77;21000;-73
2021/03/13 07:29:52;;;;;;;37.40;22.40;;;;;;;2.92;92.28;99151.95;1863163;77;21630;-71
2021/03/13 07:32:21;;;;;;;36.10;21.20;;;;;;;2.86;91.35;99157.95;1863851;77;20988;-71
2021/03/13 07:34:49;;;;;;;37.83;20.68;;;;;;;2.83;91.12;99163.11;1863321;77;21582;-74
2021/03/13 07:37:17;;;;;;;38.48;21.90;;;;;;;2.82;90.39;99154.71;1863081;77;21251;-74
2021/03/13 07:39:46;;;;;;;38.20;21.95;;;;;;;2.85;91.16;99155.52;1863160;77;21039;-74
2021/03/13 07:42:20;;;;;;;38.25;22.93;;;;;;;3.12;91.09;99164.64;1858220;77;21089;-74
2021/03/13 07:44:48;;;;;;;35.70;20.48;;;;;;;3.33;90.38;99159.96;1830028;78;21052;-72
2021/03/13 07:47:18;;;;;;;34.92;20.25;;;;;;;3.55;89.82;99164.45;1829955;77;21121;-71
2021/03/13 07:49:46;;;;;;;39.92;23.83;;;;;;;3.76;88.18;99159.19;1829557;78;21363;-74
2021/03/13 07:52:16;;;;;;;41.58;23.40;;;;;;;3.91;87.60;99163.17;1828649;78;21634;-73
2021/03/13 07:54:50;;;;;;;35.43;21.05;;;;;;;4.12;86.61;99156.21;1799705;78;21028;-73
2021/03/13 07:57:19;;;;;;;40.50;24.43;;;;;;;4.29;85.61;99159.34;1829550;78;21064;-74
2021/03/13 07:59:54;;;;;;;37.60;21.52;;;;;;;4.48;83.55;99157.56;1810518;78;21146;-72
2021/03/13 08:02:34;;;;;;;40.43;21.57;;;;;;;4.65;83.30;99156.56;1807308;79;21857;-74
2021/03/13 08:05:17;;;;;;;31.57;18.30;;;;;;;4.90;82.39;99154.15;1807580;79;20944;-73
2021/03/13 08:08:03;;;;;;;31.97;18.02;;;;;;;5.12;80.55;99158.28;1777707;79;21012;-74
2021/03/13 08:10:49;;;;;;;31.52;20.27;;;;;;;5.30;80.45;99145.25;1806476;79;21012;-74
2021/03/13 08:13:37;;;;;;;43.15;22.98;;;;;;;5.52;78.77;99141.43;1806407;79;21542;-72
2021/03/13 08:16:06;;;;;;;28.60;17.40;;;;;;;5.79;77.96;99146.77;1806299;79;21250;-73
2021/03/13 08:18:49;;;;;;;38.30;20.37;;;;;;;6.02;75.54;99141.02;1807789;78;21145;-73
2021/03/13 08:21:25;;;;;;;33.05;19.05;;;;;;;6.07;75.48;99143.67;1812394;79;20991;-71
2021/03/13 08:23:56;;;;;;;29.45;18.42;;;;;;;6.21;75.22;99144.55;1813568;79;21015;-72
2021/03/13 08:26:40;;;;;;;27.58;17.40;;;;;;;6.37;74.18;99144.53;1813683;79;21050;-71
2021/03/13 08:29:09;;;;;;;30.65;18.07;;;;;;;6.49;73.89;99148.97;1813803;79;21182;-71
2021/03/13 08:31:37;;;;;;;32.48;19.35;;;;;;;6.63;72.62;99147.64;1764140;81;20992;-72
2021/03/13 08:34:13;;;;;;;32.50;20.37;;;;;;;6.69;72.87;99147.00;1764232;81;21153;-71
2021/03/13 08:36:47;;;;;;;29.02;18.62;;;;;;;6.81;72.28;99142.69;1732297;82;21664;-71
2021/03/13 08:39:25;;;;;;;29.98;18.40;;;;;;;6.96;71.76;99145.11;1755876;81;21008;-71
2021/03/13 08:41:55;;;;;;;32.70;18.70;;;;;;;7.17;70.87;99138.70;1752047;81;22284;-71
2021/03/13 08:44:32;;;;;;;28.80;18.30;;;;;;;7.40;69.28;99152.46;1755549;81;21706;-72
2021/03/13 08:47:12;;;;;;;32.33;17.75;;;;;;;7.32;68.48;99154.53;1755960;81;20921;-72
2021/03/13 08:49:47;;;;;;;30.12;18.20;;;;;;;7.15;68.17;99149.12;1755923;81;20941;-72
2021/03/13 08:52:21;;;;;;;28.73;18.00;;;;;;;7.00;69.89;99143.14;1755739;81;21483;-73
2021/03/13 08:54:50;;;;;;;26.57;17.52;;;;;;;6.91;69.34;99152.05;1755870;81;21378;-71
2021/03/13 08:57:20;;;;;;;29.45;18.17;;;;;;;7.08;70.49;99155.53;1755865;81;21502;-72
2021/03/13 08:59:57;;;;;;;26.52;17.48;;;;;;;7.29;69.14;99151.85;1752771;81;21503;-73
2021/03/13 09:02:34;;;;;;;28.57;18.12;;;;;;;7.35;68.12;99144.37;1755876;81;21606;-73
2021/03/13 09:05:11;;;;;;;31.33;18.45;;;;;;;7.27;68.25;99144.52;1755763;81;21083;-72
2021/03/13 09:07:47;;;;;;;29.52;17.87;;;;;;;7.41;67.93;99143.96;1755285;81;21901;-72
2021/03/13 09:10:14;;;;;;;31.60;18.40;;;;;;;7.48;67.62;99144.92;1755362;81;21500;-72
2021/03/13 09:12:44;;;;;;;26.60;17.75;;;;;;;7.49;67.96;99145.98;1755006;80;21099;-73
2021/03/13 09:15:12;;;;;;;28.00;17.67;;;;;;;7.58;67.80;99146.85;1755250;81;21606;-73
2021/03/13 09:17:39;;;;;;;29.55;18.50;;;;;;;7.79;67.41;99145.86;1755716;81;20925;-73
2021/03/13 09:20:15;;;;;;;27.58;17.15;;;;;;;8.02;66.05;99137.70;1750995;80;21907;-73
2021/03/13 09:22:47;;;;;;;32.10;20.00;;;;;;;8.02;65.23;99141.25;1749208;82;21154;-72
2021/03/13 09:25:18;;;;;;;27.77;18.15;;;;;;;7.91;66.40;99135.77;1748809;81;21519;-73
2021/03/13 09:27:45;;;;;;;26.20;17.65;;;;;;;7.86;65.85;99140.78;1733036;82;20999;-73
2021/03/13 09:30:22;;;;;;;26.20;17.70;;;;;;;7.79;64.95;99134.93;1732931;82;21145;-74
2021/03/13 09:32:51;;;;;;;26.73;16.75;;;;;;;7.79;66.42;99138.22;1733036;82;21569;-73
2021/03/13 09:35:24;;;;;;;27.13;17.32;;;;;;;8.03;66.60;99130.56;1733023;82;21105;-74
2021/03/13 09:37:51;;;;;;;;;;;;;;;8.25;65.05;99131.92;1735676;81;20940;-72
2021/03/13 09:40:24;;;;;;;31.07;17.40;;;;;;;8.36;65.00;99135.25;1732867;82;20667;-72
2021/03/13 09:42:51;;;;;;;26.75;16.70;;;;;;;8.47;63.29;99137.98;1732904;82;21082;-72
2021/03/13 09:45:23;;;;;;;27.67;16.40;;;;;;;8.44;63.37;99145.45;1733150;82;21201;-72
2021/03/13 09:47:58;;;;;;;28.05;18.15;;;;;;;8.39;63.68;99142.84;1733030;82;20964;-72
2021/03/13 09:50:36;;;;;;;28.10;18.12;;;;;;;8.32;63.41;99142.98;1733116;82;21655;-72
2021/03/13 09:53:18;;;;;;;27.70;16.60;;;;;;;8.41;64.33;99130.22;1889650;76;22752;-73
2021/03/13 09:55:49;;;;;;;28.60;18.12;;;;;;;8.57;64.10;99137.73;1857677;76;20919;-73
2021/03/13 09:58:17;;;;;;;26.45;17.62;;;;;;;8.89;64.95;99136.61;1853028;77;21249;-76
2021/03/13 10:00:44;;;;;;;27.52;16.90;;;;;;;9.24;61.43;99134.03;1851073;77;21136;-74
2021/03/13 10:03:14;;;;;;;24.02;16.48;;;;;;;9.20;60.56;99133.05;1826919;78;21006;-74
2021/03/13 10:05:43;;;;;;;25.20;16.77;;;;;;;9.07;60.51;99136.13;1826242;78;21022;-75
2021/03/13 10:08:15;;;;;;;27.42;17.52;;;;;;;8.97;60.88;99129.56;1826127;78;21054;-75
2021/03/13 10:10:46;;;;;;;26.65;18.15;;;;;;;9.01;60.61;99133.28;1826407;78;21378;-74
2021/03/13 10:13:15;;;;;;;30.32;18.17;;;;;;;8.90;60.81;99134.67;1826794;78;21145;-74
2021/03/13 10:15:43;;;;;;;26.02;17.55;;;;;;;8.88;60.61;99124.60;1826783;78;21009;-75
2021/03/13 10:18:20;;;;;;;28.00;17.70;;;;;;;8.89;61.63;99126.22;1826567;78;21046;-75
2021/03/13 10:20:53;;;;;;;27.40;17.25;;;;;;;9.00;60.59;99138.52;1827025;78;21042;-74
2021/03/13 10:23:23;;;;;;;29.07;18.00;;;;;;;9.04;61.26;99132.66;1826857;78;22242;-75
2021/03/13 10:26:09;;;;;;;31.10;17.67;;;;;;;9.09;60.14;99135.25;1838358;77;21018;-75
2021/03/13 10:28:36;;;;;;;26.40;17.85;;;;;;;9.19;61.90;99130.06;1822364;78;21560;-75
2021/03/13 10:31:19;;;;;;;25.55;16.50;;;;;;;9.57;60.96;99135.23;1822525;78;21596;-75
2021/03/13 10:33:45;;;;;;;27.62;16.97;;;;;;;9.70;58.56;99134.86;1822301;78;21026;-75
2021/03/13 10:36:14;;;;;;;24.12;14.87;;;;;;;9.66;58.24;99135.25;1822517;78;21363;-75
2021/03/13 10:38:45;;;;;;;25.27;16.93;;;;;;;9.66;58.52;99129.77;1822746;78;21486;-75
2021/03/13 10:41:16;;;;;;;38.85;19.45;;;;;;;9.55;58.33;99128.45;1822804;78;21182;-75
2021/03/13 10:43:45;;;;;;;25.32;15.45;;;;;;;9.53;59.35;99129.34;1797727;78;21609;-75
2021/03/13 10:46:20;;;;;;;24.72;15.28;;;;;;;9.70;58.35;99128.01;1790179;80;21014;-75
2021/03/13 10:48:53;;;;;;;38.58;18.37;;;;;;;9.66;57.99;99127.59;1790470;80;21440;-75
2021/03/13 10:51:45;;;;;;;93.35;33.55;;;;;;;9.49;58.19;99133.84;1790290;80;21063;-74
2021/03/13 10:57:07;;;;;;;32.13;18.17;;;;;;;9.99;59.22;99125.19;1873376;76;22669;-77
2021/03/13 10:59:36;;;;;;;;;;;;;;;10.24;58.54;99131.28;1844214;78;21038;-73
2021/03/13 11:02:04;;;;;;;23.45;14.70;;;;;;;10.44;57.20;99129.78;1841180;77;22132;-74
2021/03/13 11:04:32;;;;;;;20.25;14.18;;;;;;;10.45;56.39;99119.05;1840931;78;21181;-74
2021/03/13 11:07:00;;;;;;;27.82;14.80;;;;;;;10.32;55.93;99124.98;1840527;78;21578;-74
2021/03/13 11:09:29;;;;;;;21.45;14.28;;;;;;;10.01;56.70;99121.56;1840656;77;20976;-74
2021/03/13 11:11:56;;;;;;;17.95;13.43;;;;;;;9.93;57.84;99113.02;1849996;77;21562;-74
2021/03/13 11:14:24;;;;;;;22.05;15.68;;;;;;;10.08;57.95;99121.89;1863506;76;21187;-74
2021/03/13 11:16:52;;;;;;;21.68;15.00;;;;;;;10.14;56.95;99117.86;1863585;76;20905;-74
2021/03/13 11:19:19;;;;;;;25.77;15.75;;;;;;;10.15;57.58;99104.39;1863697;76;20936;-74
2021/03/13 11:21:47;;;;;;;23.77;15.08;;;;;;;10.24;57.72;99107.96;1863841;77;20961;-74
2021/03/13 11:24:14;;;;;;;22.20;14.47;;;;;;;10.40;57.98;99098.67;1863984;77;21132;-74
2021/03/13 11:26:42;;;;;;;20.52;13.48;;;;;;;10.62;56.87;99097.06;1848160;77;21183;-74
2021/03/13 11:29:09;;;;;;;24.87;14.87;;;;;;;10.81;54.62;99106.30;1790407;80;21608;-74
2021/03/13 11:31:38;;;;;;;24.63;16.05;;;;;;;10.64;54.75;99099.48;1781761;80;21009;-74
2021/03/13 11:34:06;;;;;;;24.82;15.25;;;;;;;10.48;54.83;99105.48;1781891;80;21020;-74
2021/03/13 11:36:35;;;;;;;23.35;13.98;;;;;;;10.48;55.22;99094.51;1781928;80;21496;-74
2021/03/13 11:39:06;;;;;;;25.20;15.10;;;;;;;10.54;55.14;99089.66;1781991;80;21488;-74
2021/03/13 11:41:33;;;;;;;23.98;14.85;;;;;;;10.75;54.12;99089.77;1785546;79;21013;-74
2021/03/13 11:44:01;;;;;;;56.20;25.32;;;;;;;10.80;54.47;99078.61;1775723;78;20958;-74
2021/03/13 11:46:29;;;;;;;68.07;26.95;;;;;;;11.03;53.74;99081.31;1771788;81;21029;-74